Terminal Aerodrome Forecast
Issued by NWS

Home | Current Version | Previous Version | Text Only | Print | Product List | Glossary On
Versions: 1 2 3 4 5 6 7 8 9 10 11 12 13 14
000
FTUS43 KPAH 291819 AAB
TAFCGI
TAF AMD
KCGI 291819Z 2918/3018 16010KT P6SM SCT007 BKN015
     FM291900 18012G18KT P6SM SCT025
     FM300100 21005KT P6SM SCT120
     FM300900 27005KT 5SM BR BKN080
     FM301400 27010KT P6SM SCT080=

USA.gov is the U.S. government's official web portal to all federal, state and local government web resources and services.